Time;durP1;ratioP1;P1;durP2;ratioP2;P2;SDS_P1;SDS_P2;PMS_P1;PMS_P2;Temp;Humidity;BMP_temperature;BMP_pressure;BME280_temperature;BME280_humidity;BME280_pressure;Samples;Min_cycle;Max_cycle;Signal;HPM_P1;HPM_P2
2023/05/18 00:00:14;;;;;;;10.02;2.40;;;;;;;7.99;55.99;102061.63;7397822;19;20414;-70
2023/05/18 00:02:43;;;;;;;10.70;2.70;;;;;;;7.94;56.27;102058.94;7398439;19;20018;-70
2023/05/18 00:05:11;;;;;;;8.20;2.63;;;;;;;7.92;56.38;102062.41;7397738;19;20014;-70
2023/05/18 00:07:43;;;;;;;6.95;2.13;;;;;;;7.86;56.89;102062.34;7396082;19;20536;-70
2023/05/18 00:10:12;;;;;;;8.18;2.20;;;;;;;7.80;56.93;102056.19;7398167;19;20036;-69
2023/05/18 00:12:41;;;;;;;9.45;3.00;;;;;;;7.74;57.14;102060.50;7397681;19;20011;-69
2023/05/18 00:15:10;;;;;;;6.60;2.70;;;;;;;7.71;57.01;102065.66;7397839;19;20035;-69
2023/05/18 00:17:39;;;;;;;6.95;2.60;;;;;;;7.67;57.31;102056.91;7395115;19;20074;-69
2023/05/18 00:20:09;;;;;;;16.98;3.55;;;;;;;7.60;57.66;102061.19;7397219;19;20022;-69
2023/05/18 00:22:38;;;;;;;9.23;3.28;;;;;;;7.54;57.99;102058.50;7397328;19;20016;-68
2023/05/18 00:25:10;;;;;;;5.93;2.63;;;;;;;7.51;58.21;102066.31;7397449;19;20358;-69
2023/05/18 00:27:38;;;;;;;11.13;3.97;;;;;;;7.46;58.15;102062.78;7396032;19;20024;-70
2023/05/18 00:30:08;;;;;;;11.40;3.10;;;;;;;7.43;58.66;102065.34;7396869;19;20089;-70
2023/05/18 00:32:36;;;;;;;8.43;2.30;;;;;;;7.40;58.83;102062.69;7396730;19;20030;-70
2023/05/18 00:35:06;;;;;;;9.02;2.63;;;;;;;7.36;58.93;102068.75;7397136;19;20019;-70
2023/05/18 00:37:34;;;;;;;7.05;2.70;;;;;;;7.31;59.26;102066.94;7397069;19;20015;-69
2023/05/18 00:40:05;;;;;;;6.50;2.42;;;;;;;7.30;59.27;102065.19;7396560;19;20419;-69
2023/05/18 00:42:36;;;;;;;8.02;3.00;;;;;;;7.24;59.63;102057.28;7397348;19;20021;-69
2023/05/18 00:45:05;;;;;;;6.40;2.10;;;;;;;7.27;59.51;102070.38;7397151;19;20022;-69
2023/05/18 00:47:34;;;;;;;10.43;3.70;;;;;;;7.24;59.66;102075.56;7395631;19;20018;-68
2023/05/18 00:50:03;;;;;;;9.18;2.60;;;;;;;7.17;59.95;102073.72;7396666;19;20013;-68
2023/05/18 00:52:31;;;;;;;9.50;2.88;;;;;;;7.17;59.96;102081.53;7396546;19;20419;-69
2023/05/18 00:55:01;;;;;;;10.98;2.40;;;;;;;7.15;60.59;102081.53;7396454;19;20019;-69
2023/05/18 00:57:29;;;;;;;12.75;3.03;;;;;;;7.12;60.42;102091.03;7396487;19;20096;-69
2023/05/18 01:00:03;;;;;;;7.43;2.85;;;;;;;7.09;60.73;102084.06;7396341;19;20031;-68
2023/05/18 01:02:31;;;;;;;12.40;3.28;;;;;;;7.08;60.43;102090.13;7396733;19;20074;-69
2023/05/18 01:05:02;;;;;;;8.90;3.00;;;;;;;7.07;60.84;102090.09;7396178;19;20027;-69
2023/05/18 01:07:32;;;;;;;7.30;2.40;;;;;;;7.05;60.93;102091.81;7395641;19;20019;-68
2023/05/18 01:10:01;;;;;;;6.93;2.10;;;;;;;7.04;60.67;102100.47;7395561;19;20015;-68
2023/05/18 01:12:38;;;;;;;9.00;2.90;;;;;;;7.03;60.78;102096.13;7395995;19;20421;-70
2023/05/18 01:15:12;;;;;;;7.88;2.60;;;;;;;7.04;60.94;102098.78;7396321;19;20019;-68
2023/05/18 01:17:42;;;;;;;;;;;;;;;7.03;61.20;102102.22;7397365;19;20085;-69
2023/05/18 01:20:23;;;;;;;9.32;2.55;;;;;;;7.03;60.93;102098.72;7396249;19;19926;-69
2023/05/18 01:23:12;;;;;;;8.25;2.42;;;;;;;7.01;60.96;102102.22;7395599;19;20010;-69
2023/05/18 01:25:50;;;;;;;5.93;2.00;;;;;;;6.99;61.27;102103.91;7395591;19;20360;-68
2023/05/18 01:28:25;;;;;;;5.25;2.53;;;;;;;6.99;61.22;102103.91;7393362;19;20017;-68
2023/05/18 01:30:55;;;;;;;6.90;2.42;;;;;;;6.98;61.30;102109.97;7395718;19;20090;-69
2023/05/18 01:33:24;;;;;;;6.60;2.20;;;;;;;6.97;61.53;102108.22;7394701;19;20370;-67
2023/05/18 01:35:52;;;;;;;4.95;2.28;;;;;;;6.96;61.45;102106.47;7394891;19;20021;-67
2023/05/18 01:38:22;;;;;;;8.02;2.50;;;;;;;6.96;61.84;102106.47;7395276;19;20423;-67
2023/05/18 01:40:58;;;;;;;10.57;2.92;;;;;;;6.94;61.63;102112.53;7395599;19;20019;-67
2023/05/18 01:43:33;;;;;;;7.60;2.40;;;;;;;6.92;61.76;102117.72;7394831;19;20031;-67
2023/05/18 01:46:10;;;;;;;11.50;2.83;;;;;;;6.91;62.15;102118.56;7394760;19;20544;-67
2023/05/18 01:48:41;;;;;;;7.78;3.65;;;;;;;6.87;62.12;102115.91;7393449;19;20018;-67
2023/05/18 01:51:15;;;;;;;10.43;2.67;;;;;;;6.84;62.37;102119.34;7394596;19;20043;-67
2023/05/18 01:53:48;;;;;;;6.05;2.13;;;;;;;6.84;62.45;102114.97;7393702;19;20447;-67
2023/05/18 01:56:16;;;;;;;6.93;3.00;;;;;;;6.84;62.41;102119.34;7395323;19;20018;-74
2023/05/18 01:58:49;;;;;;;9.18;2.55;;;;;;;6.82;62.72;102111.50;7394762;19;20022;-68
2023/05/18 02:01:18;;;;;;;8.88;2.50;;;;;;;6.81;62.66;102119.28;7395080;19;20038;-68
2023/05/18 02:03:47;;;;;;;9.98;2.53;;;;;;;6.80;62.86;102114.94;7393545;19;20031;-68
2023/05/18 02:06:16;;;;;;;7.80;2.50;;;;;;;6.79;62.64;102123.59;7394502;19;20021;-68
2023/05/18 02:08:44;;;;;;;10.98;2.42;;;;;;;6.78;63.00;102116.63;7392319;19;20428;-68
2023/05/18 02:11:13;;;;;;;7.60;2.65;;;;;;;6.79;62.80;102121.00;7393962;19;20530;-68
2023/05/18 02:13:41;;;;;;;6.93;2.47;;;;;;;6.79;63.09;102118.38;7393367;19;20462;-68
2023/05/18 02:16:13;;;;;;;10.77;2.90;;;;;;;6.76;63.28;102123.53;7393888;19;20015;-68
2023/05/18 02:18:41;;;;;;;8.80;2.60;;;;;;;6.75;63.18;102120.06;7394720;19;20022;-69
2023/05/18 02:21:12;;;;;;;7.25;1.95;;;;;;;6.73;63.25;102120.91;7394123;19;20041;-68
2023/05/18 02:23:41;;;;;;;6.20;1.98;;;;;;;6.71;63.37;102125.19;7392741;19;20366;-68
2023/05/18 02:26:09;;;;;;;8.75;2.67;;;;;;;6.67;63.67;102125.16;7393655;19;20018;-68
2023/05/18 02:28:39;;;;;;;7.50;2.17;;;;;;;6.65;63.53;102126.84;7391591;19;20014;-68
2023/05/18 02:31:08;;;;;;;7.10;2.20;;;;;;;6.63;63.56;102123.31;7393894;19;20011;-68
2023/05/18 02:33:41;;;;;;;6.80;2.42;;;;;;;6.61;64.10;102129.38;7392821;19;20018;-67
2023/05/18 02:36:11;;;;;;;5.45;2.20;;;;;;;6.57;64.16;102118.03;7393428;19;20010;-67
2023/05/18 02:38:40;;;;;;;8.43;2.25;;;;;;;6.54;64.24;102128.41;7393517;19;20022;-68
2023/05/18 02:41:09;;;;;;;5.85;2.60;;;;;;;6.53;64.14;102126.63;7393226;19;20021;-68
2023/05/18 02:43:38;;;;;;;4.68;2.30;;;;;;;6.50;64.06;102126.59;7399232;19;20503;-67
2023/05/18 02:46:07;;;;;;;5.90;2.17;;;;;;;6.48;64.31;102125.69;7400834;19;20027;-68
2023/05/18 02:48:35;;;;;;;8.45;2.83;;;;;;;6.46;64.32;102130.00;7398330;19;20014;-68
2023/05/18 02:51:06;;;;;;;5.90;2.40;;;;;;;6.44;64.75;102134.31;7400264;19;20023;-68
2023/05/18 02:53:35;;;;;;;6.07;2.15;;;;;;;6.40;64.69;102138.59;7399713;19;20022;-67
2023/05/18 02:56:04;;;;;;;8.15;2.70;;;;;;;6.35;64.78;102130.66;7400493;19;20018;-68
2023/05/18 02:58:33;;;;;;;10.52;2.40;;;;;;;6.32;64.88;102132.38;7400359;19;20366;-68
2023/05/18 03:01:02;;;;;;;7.00;2.42;;;;;;;6.27;65.00;102132.28;7399800;19;20019;-68
2023/05/18 03:03:30;;;;;;;18.25;2.88;;;;;;;6.22;65.18;102130.41;7398796;19;20571;-67
2023/05/18 03:05:59;;;;;;;6.43;1.85;;;;;;;6.18;65.34;102126.91;7399751;19;20358;-68
2023/05/18 03:08:30;;;;;;;5.95;2.25;;;;;;;6.13;65.34;102125.91;7398105;19;20014;-68
2023/05/18 03:10:59;;;;;;;5.47;2.35;;;;;;;6.15;65.28;102134.66;7399457;19;20419;-68
2023/05/18 03:13:27;;;;;;;6.13;2.42;;;;;;;6.13;65.14;102142.44;7398443;19;20032;-68
2023/05/18 03:15:56;;;;;;;9.57;2.80;;;;;;;6.10;65.31;102139.75;7399380;19;20436;-67
2023/05/18 03:18:25;;;;;;;9.30;2.55;;;;;;;6.08;65.15;102133.66;7399648;19;20010;-68
2023/05/18 03:20:53;;;;;;;7.28;2.85;;;;;;;6.05;65.22;102137.94;7399283;19;20482;-68
2023/05/18 03:23:22;;;;;;;8.30;2.75;;;;;;;6.00;65.13;102149.16;7398675;19;20035;-68
2023/05/18 03:25:54;;;;;;;7.32;2.75;;;;;;;5.96;65.19;102149.88;7399453;19;20018;-68
2023/05/18 03:28:23;;;;;;;7.05;2.85;;;;;;;5.90;65.35;102154.97;7397965;19;20037;-67
2023/05/18 03:30:51;;;;;;;11.93;3.00;;;;;;;5.85;65.27;102154.91;7399326;19;20026;-68
2023/05/18 03:33:20;;;;;;;6.90;2.70;;;;;;;5.80;65.24;102153.03;7398429;19;20074;-68
2023/05/18 03:35:48;;;;;;;7.90;2.67;;;;;;;5.76;65.38;102164.22;7398794;19;20019;-68
2023/05/18 03:38:17;;;;;;;5.25;2.50;;;;;;;5.69;65.42;102156.28;7398851;19;20014;-67
2023/05/18 03:40:45;;;;;;;7.97;2.83;;;;;;;5.66;65.53;102155.34;7399024;19;20015;-68
2023/05/18 03:43:17;;;;;;;6.30;2.80;;;;;;;5.63;65.74;102165.72;7397753;19;20022;-67
2023/05/18 03:45:45;;;;;;;7.70;3.03;;;;;;;5.59;65.77;102171.69;7399041;19;20018;-68
2023/05/18 03:48:14;;;;;;;9.25;2.53;;;;;;;5.55;65.87;102168.16;7397344;19;20015;-67
2023/05/18 03:50:42;;;;;;;7.78;2.85;;;;;;;5.51;65.70;102166.28;7398241;19;20481;-67
2023/05/18 03:53:11;;;;;;;11.35;3.22;;;;;;;5.48;65.88;102176.66;7397072;19;20021;-68
2023/05/18 03:55:40;;;;;;;8.70;2.55;;;;;;;5.45;65.95;102172.25;7398459;19;20019;-68
2023/05/18 03:58:09;;;;;;;7.25;2.90;;;;;;;5.43;66.00;102167.88;7398011;19;20021;-68
2023/05/18 04:00:41;;;;;;;5.30;2.53;;;;;;;5.41;66.20;102179.97;7397887;19;20041;-68
2023/05/18 04:03:11;;;;;;;9.55;3.20;;;;;;;5.32;66.10;102170.22;7397880;19;20018;-68
2023/05/18 04:05:42;;;;;;;10.43;3.35;;;;;;;5.35;66.53;102186.78;7398201;19;20018;-68
2023/05/18 04:08:17;;;;;;;9.93;3.45;;;;;;;5.32;66.48;102189.34;7397697;19;20019;-67
2023/05/18 04:10:46;;;;;;;8.40;2.63;;;;;;;5.31;66.61;102186.69;7397867;19;20045;-68
2023/05/18 04:13:14;;;;;;;12.10;3.20;;;;;;;5.30;66.49;102183.19;7397203;19;20019;-68
2023/05/18 04:15:46;;;;;;;6.40;2.95;;;;;;;5.30;66.65;102188.41;7397782;19;20386;-68
2023/05/18 04:18:15;;;;;;;6.22;2.63;;;;;;;5.30;66.79;102195.34;7398031;19;20014;-68
2023/05/18 04:20:44;;;;;;;12.80;3.90;;;;;;;5.29;67.01;102190.97;7397094;19;20022;-68
2023/05/18 04:23:14;;;;;;;11.32;3.00;;;;;;;5.28;67.07;102192.72;7396928;19;20023;-67
2023/05/18 04:25:49;;;;;;;7.80;3.33;;;;;;;5.29;66.85;102196.19;7397228;19;20027;-68
2023/05/18 04:28:18;;;;;;;5.95;3.45;;;;;;;5.28;66.98;102192.72;7396069;19;20386;-68
2023/05/18 04:30:50;;;;;;;32.58;16.45;;;;;;;5.29;67.11;102198.78;7397253;19;20507;-68
2023/05/18 04:33:19;;;;;;;13.13;4.90;;;;;;;5.26;67.33;102189.19;7396330;19;20367;-68
2023/05/18 04:35:47;;;;;;;10.95;3.50;;;;;;;5.32;67.55;102199.75;7397095;19;20021;-68
2023/05/18 04:38:16;;;;;;;12.43;3.42;;;;;;;5.33;67.53;102187.59;7397032;19;20031;-68
2023/05/18 04:40:45;;;;;;;7.63;3.20;;;;;;;5.36;67.63;102191.16;7396297;19;20010;-68
2023/05/18 04:43:13;;;;;;;9.18;4.15;;;;;;;5.39;67.87;102196.41;7396106;19;20018;-68
2023/05/18 04:45:44;;;;;;;8.95;3.40;;;;;;;5.43;67.94;102193.91;7396863;19;20031;-68
2023/05/18 04:48:16;;;;;;;7.65;3.85;;;;;;;5.47;68.00;102196.63;7395888;19;20018;-68
2023/05/18 04:50:45;;;;;;;7.82;2.95;;;;;;;5.51;68.21;102203.66;7397009;19;20025;-68
2023/05/18 04:53:16;;;;;;;11.55;2.95;;;;;;;5.56;68.22;102201.16;7395674;19;20411;-66
2023/05/18 04:55:45;;;;;;;7.80;3.00;;;;;;;5.63;68.22;102205.63;7396228;19;20018;-68
2023/05/18 04:58:14;;;;;;;10.70;2.90;;;;;;;5.68;68.70;102205.75;7396495;19;20011;-68
2023/05/18 05:00:42;;;;;;;9.93;3.25;;;;;;;5.75;68.62;102206.75;7396004;19;20015;-68
2023/05/18 05:03:11;;;;;;;7.15;2.90;;;;;;;5.80;68.78;102211.22;7394730;19;20019;-67
2023/05/18 05:05:42;;;;;;;9.43;2.33;;;;;;;5.89;69.13;102210.53;7395590;19;20471;-68
2023/05/18 05:08:11;;;;;;;12.82;3.05;;;;;;;5.96;69.05;102209.81;7395433;19;20485;-68
2023/05/18 05:10:39;;;;;;;9.32;2.72;;;;;;;6.03;69.18;102209.13;7395948;19;20038;-68
2023/05/18 05:13:08;;;;;;;9.45;2.67;;;;;;;6.10;69.21;102210.13;7395150;19;20019;-68
2023/05/18 05:15:38;;;;;;;8.00;2.60;;;;;;;6.17;68.86;102213.75;7395897;19;20086;-68
2023/05/18 05:18:06;;;;;;;5.38;2.20;;;;;;;6.26;69.06;102220.88;7395521;19;20482;-67
2023/05/18 05:20:35;;;;;;;10.23;2.53;;;;;;;6.32;68.83;102216.66;7395575;19;20022;-67
2023/05/18 05:23:06;;;;;;;7.00;2.15;;;;;;;6.40;68.94;102218.53;7395339;19;20035;-67
2023/05/18 05:25:34;;;;;;;7.43;2.47;;;;;;;6.47;68.55;102213.47;7395876;19;20014;-67
2023/05/18 05:28:03;;;;;;;9.98;2.63;;;;;;;6.57;68.75;102211.91;7394254;19;20024;-64
2023/05/18 05:30:32;;;;;;;14.90;3.28;;;;;;;6.65;68.63;102215.53;7395179;19;20010;-65
2023/05/18 05:33:00;;;;;;;11.30;3.40;;;;;;;6.75;68.75;102213.06;7394589;19;20037;-65
2023/05/18 05:35:29;;;;;;;6.95;2.35;;;;;;;6.84;68.22;102219.34;7395306;19;20023;-66
2023/05/18 05:37:57;;;;;;;8.38;3.00;;;;;;;6.97;68.43;102224.78;7395318;19;20022;-66
2023/05/18 05:40:28;;;;;;;6.90;2.38;;;;;;;7.08;68.11;102220.63;7395332;19;20015;-65
2023/05/18 05:42:57;;;;;;;12.02;2.70;;;;;;;7.22;67.96;102231.28;7394311;19;20035;-65
2023/05/18 05:45:27;;;;;;;13.88;2.90;;;;;;;7.36;68.07;102233.25;7394926;19;20028;-65
2023/05/18 05:47:55;;;;;;;9.43;2.42;;;;;;;7.49;67.59;102229.94;7394380;19;20482;-65
2023/05/18 05:50:24;;;;;;;8.20;2.60;;;;;;;7.63;67.58;102235.38;7394829;19;20023;-65
2023/05/18 05:52:52;;;;;;;5.85;2.15;;;;;;;7.78;67.01;102230.34;7394195;19;20035;-65
2023/05/18 05:55:21;;;;;;;7.47;2.22;;;;;;;7.88;66.88;102226.13;7394335;19;20031;-66
2023/05/18 05:57:52;;;;;;;7.78;2.35;;;;;;;8.07;66.66;102231.59;7394849;19;20027;-65
2023/05/18 06:00:22;;;;;;;11.25;3.22;;;;;;;8.21;66.44;102232.63;7394929;19;20031;-65
2023/05/18 06:02:51;;;;;;;15.98;2.70;;;;;;;8.34;66.39;102227.56;7394334;19;20037;-66
2023/05/18 06:05:19;;;;;;;10.07;2.20;;;;;;;8.47;66.11;102227.75;7394613;19;20015;-65
2023/05/18 06:07:48;;;;;;;10.50;2.00;;;;;;;8.59;65.80;102227.00;7394091;19;20019;-67
2023/05/18 06:10:16;;;;;;;7.28;2.20;;;;;;;8.70;65.42;102228.84;7392399;19;20019;-67
2023/05/18 06:12:45;;;;;;;11.32;2.28;;;;;;;8.79;65.03;102231.56;7394045;19;20032;-67
2023/05/18 06:15:16;;;;;;;10.82;1.92;;;;;;;8.90;64.95;102229.91;7396616;19;20031;-67
2023/05/18 06:17:45;;;;;;;8.75;2.20;;;;;;;9.02;64.74;102230.88;7402199;19;20015;-67
2023/05/18 06:20:15;;;;;;;9.35;2.25;;;;;;;9.11;64.25;102224.00;7401479;19;20078;-67
2023/05/18 06:22:43;;;;;;;8.70;2.22;;;;;;;9.23;64.14;102224.94;7401089;19;20015;-67
2023/05/18 06:25:12;;;;;;;8.07;2.08;;;;;;;9.33;63.90;102228.53;7401219;19;20018;-67
2023/05/18 06:27:41;;;;;;;6.68;1.85;;;;;;;9.42;63.64;102224.19;7400897;19;20011;-65
2023/05/18 06:30:11;;;;;;;9.30;1.95;;;;;;;9.54;63.44;102227.78;7399050;19;20045;-65
2023/05/18 06:32:42;;;;;;;8.65;2.00;;;;;;;9.65;63.43;102222.59;7400324;19;20553;-65
2023/05/18 06:35:11;;;;;;;10.32;2.60;;;;;;;9.71;62.98;102226.13;7400979;19;20414;-65
2023/05/18 06:37:40;;;;;;;9.77;2.10;;;;;;;9.76;62.91;102221.78;7400849;19;20045;-67
2023/05/18 06:40:10;;;;;;;14.52;2.13;;;;;;;9.79;62.71;102220.94;7400746;19;20010;-68
2023/05/18 06:42:39;;;;;;;10.65;1.88;;;;;;;9.81;62.61;102226.16;7400335;19;20027;-67
2023/05/18 06:45:09;;;;;;;8.30;1.90;;;;;;;9.81;62.59;102223.53;7400371;19;20010;-66
2023/05/18 06:47:37;;;;;;;8.45;1.98;;;;;;;9.80;62.48;102227.94;7400541;19;20014;-67
2023/05/18 06:50:09;;;;;;;9.23;1.67;;;;;;;9.78;62.47;102224.41;7398449;19;20082;-67
2023/05/18 06:52:38;;;;;;;11.07;1.95;;;;;;;9.76;62.19;102227.03;7400812;19;20014;-66
2023/05/18 06:55:07;;;;;;;7.68;2.05;;;;;;;9.78;62.34;102224.41;7399960;19;20018;-66
2023/05/18 06:57:36;;;;;;;10.07;2.30;;;;;;;9.81;62.25;102223.53;7400284;19;20022;-66
2023/05/18 07:00:06;;;;;;;6.32;1.67;;;;;;;9.82;61.99;102220.97;7399783;19;20018;-66
2023/05/18 07:02:34;;;;;;;8.77;2.17;;;;;;;9.87;61.83;102227.09;7401045;19;20375;-67
2023/05/18 07:05:04;;;;;;;11.45;1.80;;;;;;;9.88;61.70;102226.22;7399698;19;20015;-67
2023/05/18 07:07:36;;;;;;;5.38;1.63;;;;;;;9.90;61.64;102219.22;7399009;19;20387;-67
2023/05/18 07:10:05;;;;;;;6.82;2.10;;;;;;;9.93;61.28;102216.66;7397938;19;20031;-67
2023/05/18 07:12:33;;;;;;;8.80;1.92;;;;;;;9.94;61.17;102218.41;7399306;19;20033;-67
2023/05/18 07:15:02;;;;;;;25.83;12.45;;;;;;;9.99;60.88;102212.28;7398590;19;20018;-67
2023/05/18 07:17:31;;;;;;;11.70;3.38;;;;;;;10.01;60.50;102208.81;7398831;19;20493;-69
2023/05/18 07:20:00;;;;;;;9.18;1.60;;;;;;;10.06;60.23;102214.03;7399310;19;20014;-68
2023/05/18 07:22:37;;;;;;;11.32;2.15;;;;;;;10.10;60.15;102215.84;7399513;19;20019;-69
2023/05/18 07:25:07;;;;;;;11.23;2.20;;;;;;;10.16;59.86;102215.88;7398957;19;20494;-68
2023/05/18 07:27:35;;;;;;;9.82;2.40;;;;;;;10.22;59.47;102223.75;7398339;19;20366;-68
2023/05/18 07:30:04;;;;;;;6.90;1.40;;;;;;;10.24;59.39;102213.25;7397302;19;20006;-68
2023/05/18 07:32:32;;;;;;;9.88;1.88;;;;;;;10.27;59.01;102211.53;7398765;19;20368;-70
2023/05/18 07:35:01;;;;;;;5.28;1.50;;;;;;;10.30;58.87;102213.28;7399131;19;20023;-68
2023/05/18 07:37:29;;;;;;;6.28;1.50;;;;;;;10.36;58.62;102212.44;7400358;19;20010;-66
2023/05/18 07:40:00;;;;;;;6.00;1.10;;;;;;;10.43;58.21;102204.59;7397706;19;20015;-66
2023/05/18 07:42:29;;;;;;;5.95;1.50;;;;;;;10.43;58.01;102199.34;7398561;19;20018;-67
2023/05/18 07:44:58;;;;;;;10.00;1.13;;;;;;;10.58;57.58;102208.13;7395739;19;20372;-67
2023/05/18 07:47:26;;;;;;;6.38;1.40;;;;;;;10.68;57.29;102216.88;7398463;19;20028;-67
2023/05/18 07:49:55;;;;;;;5.03;1.40;;;;;;;10.76;56.65;102212.53;7396283;19;20039;-67
2023/05/18 07:52:23;;;;;;;7.35;1.65;;;;;;;10.87;55.83;102212.53;7397857;19;20033;-67
2023/05/18 07:54:52;;;;;;;11.48;1.80;;;;;;;10.94;55.27;102214.28;7396010;19;20045;-66
2023/05/18 07:57:23;;;;;;;9.32;1.10;;;;;;;11.02;54.70;102209.91;7398454;19;20031;-67
2023/05/18 07:59:52;;;;;;;9.10;1.70;;;;;;;11.10;54.45;102211.66;7398790;19;20035;-67
2023/05/18 08:02:21;;;;;;;7.22;1.77;;;;;;;11.13;53.66;102206.41;7398259;19;20074;-67
2023/05/18 08:04:50;;;;;;;7.32;1.52;;;;;;;11.15;53.66;102209.91;7395944;19;20021;-67
2023/05/18 08:07:20;;;;;;;5.93;1.38;;;;;;;11.18;53.02;102205.50;7398080;19;20094;-67
2023/05/18 08:09:48;;;;;;;10.05;1.77;;;;;;;11.27;52.83;102214.28;7396815;19;20074;-67
2023/05/18 08:12:17;;;;;;;6.30;1.27;;;;;;;11.35;52.61;102220.41;7397985;19;20427;-66
2023/05/18 08:14:48;;;;;;;10.02;1.42;;;;;;;11.48;52.29;102221.25;7396296;19;20030;-67
2023/05/18 08:17:18;;;;;;;9.75;1.20;;;;;;;11.62;51.81;102226.47;7397411;19;20032;-66
2023/05/18 08:19:46;;;;;;;7.90;1.75;;;;;;;11.73;51.58;102224.69;7397697;19;20089;-67
2023/05/18 08:22:15;;;;;;;8.20;1.27;;;;;;;11.83;51.20;102220.28;7397305;19;20503;-66
2023/05/18 08:24:44;;;;;;;8.82;1.48;;;;;;;11.94;50.95;102210.59;7395808;19;20376;-66
2023/05/18 08:27:12;;;;;;;6.65;1.33;;;;;;;12.06;50.85;102209.72;7397122;19;20014;-66
2023/05/18 08:29:41;;;;;;;7.70;1.10;;;;;;;12.20;50.38;102210.50;7395035;19;20014;-67
2023/05/18 08:32:12;;;;;;;5.45;1.20;;;;;;;12.35;49.82;102213.94;7396889;19;20027;-67
2023/05/18 08:34:40;;;;;;;4.32;1.08;;;;;;;12.52;49.36;102206.84;7394951;19;20036;-67
2023/05/18 08:37:09;;;;;;;5.00;1.30;;;;;;;12.69;49.08;102214.59;7396841;19;20031;-67
2023/05/18 08:39:37;;;;;;;3.97;1.25;;;;;;;12.84;48.73;102212.75;7394633;19;20027;-67
2023/05/18 08:42:13;;;;;;;8.75;1.02;;;;;;;13.05;48.12;102214.31;7396980;19;20018;-67
2023/05/18 08:44:47;;;;;;;9.02;1.63;;;;;;;13.22;47.44;102210.66;7394870;19;20367;-68
2023/05/18 08:47:24;;;;;;;;;;;;;;;13.29;46.28;102204.44;7398171;19;20031;-67
2023/05/18 08:49:53;;;;;;;13.18;1.58;;;;;;;13.30;46.63;102212.34;7396566;19;19923;-67
2023/05/18 08:52:26;;;;;;;9.02;1.60;;;;;;;13.30;46.48;102206.19;7396373;19;20022;-67
2023/05/18 08:54:56;;;;;;;6.35;1.75;;;;;;;13.31;46.61;102208.81;7394770;19;20018;-67
2023/05/18 08:57:25;;;;;;;7.78;1.90;;;;;;;13.36;46.54;102207.00;7394626;19;20014;-67
2023/05/18 08:59:56;;;;;;;12.02;1.92;;;;;;;13.43;46.26;102209.63;7396315;19;20016;-67
2023/05/18 09:02:27;;;;;;;9.52;2.38;;;;;;;13.50;45.58;102208.69;7396402;19;20028;-67
2023/05/18 09:04:58;;;;;;;7.82;1.80;;;;;;;13.61;45.90;102200.63;7394353;19;20427;-67
2023/05/18 09:07:27;;;;;;;6.10;1.30;;;;;;;13.72;45.43;102205.78;7396067;19;20035;-67
2023/05/18 09:09:57;;;;;;;6.60;2.08;;;;;;;13.87;45.16;102191.56;7394649;19;20365;-67
2023/05/18 09:12:27;;;;;;;6.93;1.92;;;;;;;14.00;44.88;102191.38;7395642;19;20011;-67
2023/05/18 09:14:56;;;;;;;11.82;2.05;;;;;;;14.17;44.59;102192.91;7394092;19;20027;-67
2023/05/18 09:17:27;;;;;;;7.45;1.75;;;;;;;14.31;43.81;102190.09;7395474;19;20500;-67
2023/05/18 09:19:56;;;;;;;8.50;1.70;;;;;;;14.42;43.76;102189.91;7396174;19;20010;-67
2023/05/18 09:22:24;;;;;;;8.00;1.65;;;;;;;14.48;43.34;102189.81;7395849;19;20019;-67
2023/05/18 09:24:54;;;;;;;6.75;1.50;;;;;;;14.50;43.26;102191.53;7393994;19;20419;-67
2023/05/18 09:27:23;;;;;;;5.57;1.60;;;;;;;14.55;43.54;102196.75;7395490;19;20094;-66
2023/05/18 09:29:56;;;;;;;5.10;1.30;;;;;;;14.57;41.87;102199.38;7393737;19;20006;-66
2023/05/18 09:32:28;;;;;;;6.15;2.13;;;;;;;14.52;43.28;102201.22;7395492;19;20035;-67
2023/05/18 09:34:57;;;;;;;6.43;2.20;;;;;;;14.51;43.18;102200.34;7393003;19;20033;-68
2023/05/18 09:37:25;;;;;;;5.90;1.90;;;;;;;14.54;43.51;102195.00;7393549;19;20018;-66
2023/05/18 09:40:00;;;;;;;6.97;2.08;;;;;;;14.57;43.23;102199.38;7395415;19;20018;-66
2023/05/18 09:42:33;;;;;;;6.30;1.60;;;;;;;14.62;43.05;102202.81;7394599;19;20078;-66
2023/05/18 09:45:02;;;;;;;7.63;1.93;;;;;;;14.68;42.96;102194.84;7395599;19;20019;-66
2023/05/18 09:47:35;;;;;;;6.88;1.52;;;;;;;14.74;42.70;102192.09;7394900;19;20492;-67
2023/05/18 09:50:03;;;;;;;16.95;5.57;;;;;;;14.78;42.54;102188.50;7395861;19;20090;-67
2023/05/18 09:52:32;;;;;;;6.85;2.35;;;;;;;14.89;41.96;102182.19;7402373;19;20015;-66
2023/05/18 09:55:03;;;;;;;7.95;2.60;;;;;;;15.02;41.54;102175.78;7402608;19;20010;-66
2023/05/18 09:57:31;;;;;;;6.47;1.85;;;;;;;15.18;41.35;102181.69;7402748;19;20022;-66
2023/05/18 10:00:09;;;;;;;5.28;1.40;;;;;;;15.34;39.33;102176.94;7402434;19;20035;-67
2023/05/18 10:02:47;;;;;;;7.13;1.67;;;;;;;15.37;40.07;102171.63;7402181;19;20015;-67
2023/05/18 10:05:22;;;;;;;5.55;1.75;;;;;;;15.37;40.38;102166.34;7402519;19;20014;-68
2023/05/18 10:07:53;;;;;;;7.93;2.03;;;;;;;15.43;40.01;102170.63;7401186;19;20032;-67
2023/05/18 10:10:23;;;;;;;6.22;1.48;;;;;;;15.47;39.79;102175.84;7400371;19;20010;-67
2023/05/18 10:12:53;;;;;;;4.63;1.33;;;;;;;15.52;39.50;102175.75;7401453;19;20031;-67
2023/05/18 10:15:23;;;;;;;5.40;1.45;;;;;;;15.55;39.10;102169.53;7402070;19;20078;-68
2023/05/18 10:17:58;;;;;;;6.65;1.83;;;;;;;15.59;38.64;102172.06;7401994;19;20015;-68
2023/05/18 10:20:33;;;;;;;4.95;1.40;;;;;;;15.69;39.26;102167.47;7401837;19;20083;-67
2023/05/18 10:23:05;;;;;;;4.72;1.52;;;;;;;15.78;39.15;102163.75;7401171;19;20022;-69
2023/05/18 10:25:35;;;;;;;6.07;1.77;;;;;;;15.88;38.91;102162.69;7401448;19;20027;-67
2023/05/18 10:28:09;;;;;;;6.38;2.25;;;;;;;15.97;38.51;102164.25;7400358;19;20017;-69
2023/05/18 10:30:39;;;;;;;7.75;2.25;;;;;;;15.99;38.61;102154.53;7399716;19;20019;-67
2023/05/18 10:33:11;;;;;;;7.32;1.63;;;;;;;15.91;38.23;102169.69;7400156;19;20018;-68
2023/05/18 10:35:40;;;;;;;8.70;2.10;;;;;;;15.75;39.04;102155.91;7401004;19;20039;-67
2023/05/18 10:38:10;;;;;;;9.35;2.22;;;;;;;15.60;38.45;102157.06;7400440;19;20014;-66
2023/05/18 10:40:41;;;;;;;5.00;1.10;;;;;;;15.48;39.33;102161.72;7400582;19;20019;-67
2023/05/18 10:43:10;;;;;;;4.32;1.20;;;;;;;15.38;39.29;102162.81;7400117;19;20019;-66
2023/05/18 10:45:39;;;;;;;4.00;1.00;;;;;;;15.33;39.44;102162.03;7400107;19;20018;-66
2023/05/18 10:48:12;;;;;;;6.85;1.48;;;;;;;15.29;39.42;102160.31;7400149;19;20031;-66
2023/05/18 10:50:42;;;;;;;5.55;1.20;;;;;;;15.28;39.31;102155.94;7398505;19;20019;-67
2023/05/18 10:53:12;;;;;;;5.80;1.38;;;;;;;15.28;39.52;102151.53;7399471;19;20031;-68
2023/05/18 10:55:40;;;;;;;6.57;1.33;;;;;;;15.34;39.07;102153.16;7399726;19;20059;-66
2023/05/18 10:58:13;;;;;;;6.50;1.63;;;;;;;15.46;39.07;102139.69;7400614;19;20022;-66
2023/05/18 11:00:43;;;;;;;3.53;1.20;;;;;;;15.64;38.78;102137.59;7400482;19;20031;-66
2023/05/18 11:03:17;;;;;;;4.68;1.45;;;;;;;15.83;38.00;102131.94;7396783;19;20018;-66
2023/05/18 11:05:50;;;;;;;6.72;1.30;;;;;;;15.96;38.40;102126.34;7400233;19;20019;-67
2023/05/18 11:08:28;;;;;;;4.40;1.30;;;;;;;16.12;37.72;102129.53;7400243;19;20410;-69
2023/05/18 11:11:06;;;;;;;6.82;2.05;;;;;;;16.17;36.78;102136.50;7398683;19;20022;-68
2023/05/18 11:13:37;;;;;;;7.18;2.33;;;;;;;16.14;37.65;102132.13;7398884;19;20035;-66
2023/05/18 11:16:10;;;;;;;9.77;2.90;;;;;;;16.11;37.61;102124.25;7400309;19;20112;-67
2023/05/18 11:18:48;;;;;;;11.55;3.38;;;;;;;16.22;36.68;102124.00;7399634;19;20042;-67
2023/05/18 11:21:40;;;;;;;6.15;1.77;;;;;;;16.33;37.18;102126.38;7399489;19;20010;-67
2023/05/18 11:24:26;;;;;;;9.45;2.83;;;;;;;16.47;36.55;102124.28;7397764;19;20026;-67
2023/05/18 11:26:56;;;;;;;4.97;1.40;;;;;;;16.59;36.64;102113.41;7399082;19;20018;-66
2023/05/18 11:29:40;;;;;;;7.57;1.92;;;;;;;16.73;36.38;102114.81;7396960;19;20331;-67
2023/05/18 11:32:23;;;;;;;;;;;;;;;16.86;36.20;102123.34;7396686;19;20018;-67
2023/05/18 11:34:55;;;;;;;10.45;1.60;;;;;;;16.96;36.30;102122.22;7396535;19;19918;-67
2023/05/18 11:37:51;;;;;;;4.72;1.08;;;;;;;16.94;35.21;102113.41;7398017;19;20035;-66
2023/05/18 11:40:48;;;;;;;7.63;1.50;;;;;;;16.77;35.30;102117.34;7398507;19;20021;-67
2023/05/18 11:43:23;;;;;;;4.25;1.48;;;;;;;16.66;35.92;102121.19;7397591;19;20014;-66